Time;durP1;ratioP1;P1;durP2;ratioP2;P2;SDS_P1;SDS_P2;PMS_P1;PMS_P2;Temp;Humidity;BMP_temperature;BMP_pressure;BME280_temperature;BME280_humidity;BME280_pressure;Samples;Min_cycle;Max_cycle;Signal;HPM_P1;HPM_P2
2022/12/28 00:00:21;;;;;;;11.63;3.90;;;5.90;99.90;;;;;;5068402;28;20036;-71
2022/12/28 00:02:47;;;;;;;12.20;3.85;;;5.80;99.90;;;;;;5084610;28;20157;-71
2022/12/28 00:05:12;;;;;;;10.32;3.67;;;5.80;99.90;;;;;;5089496;28;20103;-71
2022/12/28 00:07:38;;;;;;;10.00;4.05;;;5.80;99.90;;;;;;5097891;28;20039;-71
2022/12/28 00:10:08;;;;;;;6.63;3.55;;;5.80;99.90;;;;;;5098398;28;20036;-71
2022/12/28 00:12:34;;;;;;;9.55;4.10;;;5.80;99.90;;;;;;5067657;28;20058;-71
2022/12/28 00:14:59;;;;;;;10.13;3.13;;;5.80;99.90;;;;;;5080985;28;20131;-72
2022/12/28 00:17:25;;;;;;;9.98;3.45;;;5.90;99.90;;;;;;5064495;28;20038;-72
2022/12/28 00:19:51;;;;;;;13.15;3.63;;;5.80;99.90;;;;;;5061942;28;20464;-72
2022/12/28 00:22:17;;;;;;;10.02;3.13;;;5.80;99.90;;;;;;5066375;28;20552;-72
2022/12/28 00:24:43;;;;;;;7.75;2.58;;;5.80;99.90;;;;;;5087299;28;20051;-70
2022/12/28 00:27:08;;;;;;;6.60;3.42;;;5.80;99.90;;;;;;5105825;28;20125;-71
2022/12/28 00:29:34;;;;;;;5.72;2.63;;;5.80;99.90;;;;;;5087329;28;20345;-71
2022/12/28 00:32:03;;;;;;;6.18;2.67;;;5.80;99.90;;;;;;5089538;28;20024;-71
2022/12/28 00:34:28;;;;;;;8.13;2.42;;;5.80;99.90;;;;;;5092186;28;20349;-72
2022/12/28 00:36:54;;;;;;;11.90;2.75;;;5.80;99.90;;;;;;5083654;28;20045;-72
2022/12/28 00:39:20;;;;;;;7.80;2.85;;;5.80;99.90;;;;;;5085419;28;20024;-74
2022/12/28 00:41:47;;;;;;;10.50;2.88;;;5.80;99.90;;;;;;5068067;28;20024;-71
2022/12/28 00:44:12;;;;;;;9.70;2.22;;;5.80;99.90;;;;;;5102544;28;20100;-71
2022/12/28 00:46:38;;;;;;;5.22;2.30;;;5.80;99.90;;;;;;5102525;28;20032;-71
2022/12/28 00:49:04;;;;;;;8.82;2.78;;;5.80;99.90;;;;;;5066882;28;20449;-70
2022/12/28 00:51:30;;;;;;;8.52;2.30;;;5.80;99.90;;;;;;5073637;28;20518;-70
2022/12/28 00:53:56;;;;;;;5.65;2.00;;;5.70;99.90;;;;;;5106900;28;20072;-71
2022/12/28 00:56:22;;;;;;;8.98;2.53;;;5.70;99.90;;;;;;5108659;28;20081;-71
2022/12/28 00:58:48;;;;;;;8.77;2.25;;;5.70;99.90;;;;;;5106255;28;20869;-70
2022/12/28 01:01:21;;;;;;;7.88;2.00;;;5.70;99.90;;;;;;5105095;28;20020;-70
2022/12/28 01:03:47;;;;;;;9.35;2.38;;;5.80;99.90;;;;;;5089114;28;20082;-73
2022/12/28 01:06:15;;;;;;;5.32;2.00;;;5.70;99.90;;;;;;5085861;28;20478;-73
2022/12/28 01:08:41;;;;;;;5.95;2.50;;;5.70;99.90;;;;;;5107311;28;21208;-73
2022/12/28 01:11:18;;;;;;;7.57;2.15;;;5.80;99.90;;;;;;5089588;28;20381;-73
2022/12/28 01:13:44;;;;;;;5.35;1.75;;;5.70;99.90;;;;;;5089893;28;20057;-73
2022/12/28 01:16:19;;;;;;;6.07;1.95;;;5.70;99.90;;;;;;5107012;28;20502;-73
2022/12/28 01:18:45;;;;;;;6.95;2.08;;;5.60;99.90;;;;;;5104291;28;20059;-73
2022/12/28 01:21:15;;;;;;;8.05;2.67;;;5.70;99.90;;;;;;5101517;28;20056;-73
2022/12/28 01:23:42;;;;;;;7.45;1.80;;;5.70;99.90;;;;;;5087364;28;20077;-71
2022/12/28 01:26:08;;;;;;;6.28;1.95;;;5.70;99.90;;;;;;5103759;28;20036;-71
2022/12/28 01:28:35;;;;;;;6.32;1.90;;;5.70;99.90;;;;;;5085308;28;20031;-70
2022/12/28 01:31:05;;;;;;;8.50;2.47;;;5.70;99.90;;;;;;5104384;28;20172;-70
2022/12/28 01:33:31;;;;;;;7.10;1.80;;;5.70;99.90;;;;;;5108252;28;20034;-71
2022/12/28 01:35:57;;;;;;;9.90;1.90;;;5.70;99.90;;;;;;5101008;27;20027;-71
2022/12/28 01:38:23;;;;;;;5.57;1.98;;;5.70;99.90;;;;;;5080880;28;20028;-71
2022/12/28 01:40:49;;;;;;;4.00;1.58;;;5.70;99.90;;;;;;5086800;28;20054;-72
2022/12/28 01:43:15;;;;;;;4.50;1.75;;;5.70;99.90;;;;;;5089377;28;20505;-72
2022/12/28 01:45:46;;;;;;;5.18;1.85;;;5.70;99.90;;;;;;5107831;28;20062;-71
2022/12/28 01:48:23;;;;;;;9.48;2.15;;;5.70;99.90;;;;;;5088171;28;20510;-72
2022/12/28 01:50:51;;;;;;;6.85;2.13;;;5.70;99.90;;;;;;5070318;28;20065;-72
2022/12/28 01:53:20;;;;;;;6.32;1.70;;;5.70;99.90;;;;;;5106382;28;20511;-71
2022/12/28 01:55:46;;;;;;;6.60;1.80;;;5.70;99.90;;;;;;5089607;28;20063;-73
2022/12/28 01:58:18;;;;;;;7.60;2.05;;;5.70;99.90;;;;;;5087369;28;20024;-73
2022/12/28 02:00:43;;;;;;;5.05;1.70;;;5.60;99.90;;;;;;5088601;28;20024;-74
2022/12/28 02:03:20;;;;;;;4.20;1.50;;;5.60;99.90;;;;;;5071576;28;20651;-73
2022/12/28 02:05:49;;;;;;;5.28;1.48;;;5.60;99.90;;;;;;5090030;28;20050;-73
2022/12/28 02:08:40;;;;;;;5.45;1.70;;;5.70;99.90;;;;;;5106253;28;20036;-72
2022/12/28 02:11:09;;;;;;;3.70;1.50;;;5.60;99.90;;;;;;5097508;28;20040;-71
2022/12/28 02:13:35;;;;;;;6.90;1.90;;;5.70;99.90;;;;;;5094891;28;20035;-73
2022/12/28 02:16:03;;;;;;;7.63;1.60;;;5.70;99.90;;;;;;5105407;28;20031;-71
2022/12/28 02:18:29;;;;;;;3.65;1.45;;;5.70;99.90;;;;;;5088641;28;20023;-72
2022/12/28 02:21:32;;;;;;;8.18;2.10;;;5.70;99.90;;;;;;5103714;28;21020;-71
2022/12/28 02:24:24;;;;;;;7.47;1.90;;;5.70;99.90;;;;;;5086952;28;20024;-72
2022/12/28 02:27:22;;;;;;;8.43;2.08;;;5.70;99.90;;;;;;5103452;28;20057;-71
2022/12/28 02:30:00;;;;;;;7.70;2.83;;;5.70;99.90;;;;;;5105989;28;20031;-71
2022/12/28 02:32:48;;;;;;;7.35;2.13;;;5.70;99.90;;;;;;5103622;28;20028;-71
2022/12/28 02:35:28;;;;;;;7.90;2.45;;;5.70;99.90;;;;;;5086560;28;20116;-72
2022/12/28 02:38:04;;;;;;;4.63;1.95;;;5.70;99.90;;;;;;5107835;28;20052;-72
2022/12/28 02:40:40;;;;;;;7.57;1.80;;;5.70;99.90;;;;;;5104571;28;20424;-71
2022/12/28 02:43:05;;;;;;;7.10;1.88;;;5.60;99.90;;;;;;5088716;28;20544;-71
2022/12/28 02:51:31;;;;;;;8.18;2.20;;;5.60;99.90;;;;;;5106959;28;20103;-71
2022/12/28 02:56:05;;;;;;;6.38;1.90;;;5.60;99.90;;;;;;5105468;28;20031;-71
2022/12/28 02:57:22;;;;;;;4.32;1.73;;;5.60;99.90;;;;;;5084909;28;20047;-71
2022/12/28 03:00:01;;;;;;;6.22;1.75;;;5.60;99.90;;;;;;5082061;28;20031;-71
2022/12/28 03:02:51;;;;;;;8.43;1.85;;;5.60;99.90;;;;;;5088308;28;20028;-72
2022/12/28 03:08:18;;;;;;;7.33;1.60;;;5.50;99.90;;;;;;5087510;28;20047;-73
2022/12/28 03:08:21;;;;;;;11.65;2.20;;;5.50;99.90;;;;;;5105102;28;20439;-73
2022/12/28 03:11:10;;;;;;;6.00;1.83;;;5.50;99.90;;;;;;5105487;28;20027;-74
2022/12/28 03:13:44;;;;;;;9.00;1.80;;;5.50;99.90;;;;;;5104017;28;20489;-73
2022/12/28 03:25:41;;;;;;;7.32;1.98;;;5.40;99.90;;;;;;5105459;28;20031;-73
2022/12/28 03:33:21;;;;;;;5.25;1.92;;;5.30;99.90;;;;;;5103979;28;20081;-73
2022/12/28 03:36:12;;;;;;;6.60;2.20;;;5.30;99.90;;;;;;5087553;28;20436;-73
2022/12/28 03:38:48;;;;;;;8.45;2.20;;;5.30;99.90;;;;;;5069735;28;20040;-73
2022/12/28 03:41:28;;;;;;;11.40;2.22;;;5.30;99.90;;;;;;5071320;28;20186;-74
2022/12/28 03:43:59;;;;;;;6.28;2.58;;;5.30;99.90;;;;;;5085572;28;20035;-74
2022/12/28 03:46:37;;;;;;;8.65;2.50;;;5.30;99.90;;;;;;5080335;28;20077;-74
2022/12/28 03:49:03;;;;;;;7.10;2.47;;;5.30;99.90;;;;;;5091161;28;20181;-71
2022/12/28 03:51:31;;;;;;;7.22;2.08;;;5.30;99.90;;;;;;5073713;28;20100;-72
2022/12/28 03:53:57;;;;;;;6.82;2.33;;;5.30;99.90;;;;;;5108323;28;20019;-71
2022/12/28 03:56:25;;;;;;;4.80;1.92;;;5.30;99.90;;;;;;5085590;28;20397;-72
2022/12/28 03:58:51;;;;;;;7.68;2.00;;;5.30;99.90;;;;;;5107287;28;20058;-71
2022/12/28 04:01:17;;;;;;;10.07;2.33;;;5.30;99.90;;;;;;5106505;28;20046;-71
2022/12/28 04:03:43;;;;;;;8.80;2.47;;;5.30;99.90;;;;;;5086695;28;20028;-72
2022/12/28 04:06:14;;;;;;;9.70;2.50;;;5.30;99.90;;;;;;5103003;28;20035;-72
2022/12/28 04:08:40;;;;;;;8.57;1.95;;;5.30;99.90;;;;;;5088765;28;20103;-71
2022/12/28 04:11:06;;;;;;;6.35;2.08;;;5.30;99.90;;;;;;5083514;28;20135;-72
2022/12/28 04:13:33;;;;;;;9.23;2.88;;;5.30;99.90;;;;;;5109939;28;20434;-72
2022/12/28 04:16:10;;;;;;;9.23;2.47;;;5.20;99.90;;;;;;5087459;28;20069;-72
2022/12/28 04:18:36;;;;;;;5.13;2.50;;;5.20;99.90;;;;;;5087743;28;20019;-72
2022/12/28 04:21:02;;;;;;;9.23;2.30;;;5.20;99.90;;;;;;5106608;28;20391;-72
2022/12/28 04:23:30;;;;;;;8.32;2.40;;;5.20;99.90;;;;;;5105918;28;20098;-72
2022/12/28 04:26:05;;;;;;;7.88;2.58;;;5.20;99.90;;;;;;5107318;28;20027;-71
2022/12/28 04:28:32;;;;;;;8.30;2.22;;;5.20;99.90;;;;;;5086647;28;20027;-71
2022/12/28 04:30:59;;;;;;;3.95;2.13;;;5.20;99.90;;;;;;5110058;28;20035;-72
2022/12/28 04:33:26;;;;;;;4.93;2.17;;;5.20;99.90;;;;;;5095907;28;20087;-71
2022/12/28 04:35:52;;;;;;;4.55;2.20;;;5.20;99.90;;;;;;5109764;28;20028;-71
2022/12/28 04:38:18;;;;;;;7.78;2.92;;;5.20;99.90;;;;;;5115845;28;20409;-71
2022/12/28 04:40:44;;;;;;;7.47;2.65;;;5.20;99.90;;;;;;5114353;28;20031;-73
2022/12/28 04:43:10;;;;;;;8.73;2.45;;;5.20;99.90;;;;;;5109938;28;20035;-73
2022/12/28 04:45:36;;;;;;;5.43;2.80;;;5.20;99.90;;;;;;5073741;28;20027;-73
2022/12/28 04:48:02;;;;;;;5.72;2.53;;;5.20;99.90;;;;;;5112008;28;20027;-73
2022/12/28 04:50:28;;;;;;;8.38;2.20;;;5.20;99.90;;;;;;5110379;28;20032;-73
2022/12/28 04:52:54;;;;;;;6.80;2.00;;;5.10;99.90;;;;;;5110866;28;20058;-73
2022/12/28 04:55:20;;;;;;;6.63;2.15;;;5.10;99.90;;;;;;5090328;28;20019;-72
2022/12/28 04:57:46;;;;;;;7.47;2.60;;;5.10;99.90;;;;;;5108204;28;20027;-73
2022/12/28 05:00:13;;;;;;;7.90;1.90;;;5.10;99.90;;;;;;5092401;28;20450;-71
2022/12/28 05:02:40;;;;;;;6.25;2.13;;;5.10;99.90;;;;;;5110665;28;20039;-71
2022/12/28 05:05:06;;;;;;;7.38;2.65;;;5.10;99.90;;;;;;5108280;28;20023;-71
2022/12/28 05:07:32;;;;;;;8.27;2.67;;;5.10;99.90;;;;;;5111884;27;20027;-71
2022/12/28 05:09:57;;;;;;;7.55;2.83;;;5.10;99.90;;;;;;5108897;28;20023;-71
2022/12/28 05:12:24;;;;;;;7.72;2.92;;;5.10;99.90;;;;;;5096817;28;20045;-71
2022/12/28 05:14:51;;;;;;;7.65;3.33;;;5.10;99.90;;;;;;5090987;28;20552;-71
2022/12/28 05:17:17;;;;;;;10.40;3.70;;;5.00;99.90;;;;;;5111144;27;20055;-71
2022/12/28 05:19:43;;;;;;;5.78;3.05;;;5.00;99.90;;;;;;5090426;28;20454;-72
2022/12/28 05:22:10;;;;;;;7.90;3.35;;;5.00;99.90;;;;;;5109902;28;20060;-71
2022/12/28 05:24:37;;;;;;;6.70;3.25;;;5.00;99.90;;;;;;5085315;28;20058;-71
2022/12/28 05:27:03;;;;;;;8.10;3.05;;;5.00;99.90;;;;;;5106091;28;20028;-72
2022/12/28 05:29:29;;;;;;;8.73;3.42;;;5.00;99.90;;;;;;5090982;28;20031;-72
2022/12/28 05:31:55;;;;;;;6.80;2.90;;;5.00;99.90;;;;;;5092982;28;20039;-72
2022/12/28 05:34:21;;;;;;;8.75;3.95;;;5.00;99.90;;;;;;5108585;28;20031;-71
2022/12/28 05:36:46;;;;;;;7.95;2.97;;;5.00;99.90;;;;;;5101128;28;20038;-70
2022/12/28 05:39:12;;;;;;;11.18;3.33;;;5.00;99.90;;;;;;5101276;28;20023;-71
2022/12/28 05:41:38;;;;;;;6.60;2.90;;;5.00;99.90;;;;;;5069997;27;20070;-71
2022/12/28 05:44:04;;;;;;;9.43;2.90;;;5.00;99.90;;;;;;5111991;28;20027;-72
2022/12/28 05:46:32;;;;;;;6.50;3.15;;;5.10;99.90;;;;;;5106013;28;20507;-72
2022/12/28 05:48:58;;;;;;;8.95;3.13;;;5.10;99.90;;;;;;5084680;28;20499;-71
2022/12/28 05:51:30;;;;;;;6.65;3.58;;;5.10;99.90;;;;;;5105634;28;20015;-72
2022/12/28 05:53:58;;;;;;;8.88;3.00;;;5.10;99.90;;;;;;5089993;28;20036;-72
2022/12/28 05:56:26;;;;;;;7.68;2.95;;;5.10;99.90;;;;;;5107949;28;20023;-72
2022/12/28 05:59:03;;;;;;;7.28;2.88;;;5.10;99.90;;;;;;5086954;28;20019;-71
2022/12/28 06:01:37;;;;;;;8.88;2.90;;;5.10;99.90;;;;;;5091320;28;20024;-73
2022/12/28 06:04:12;;;;;;;6.10;3.10;;;5.10;99.90;;;;;;5108117;28;20055;-73
2022/12/28 06:06:38;;;;;;;6.78;2.65;;;5.10;99.90;;;;;;5092534;28;20035;-71
2022/12/28 06:09:04;;;;;;;5.10;3.00;;;5.10;99.90;;;;;;5091982;28;20023;-71
2022/12/28 06:11:30;;;;;;;7.00;3.10;;;5.10;99.90;;;;;;5074950;28;20028;-72
2022/12/28 06:13:58;;;;;;;5.80;2.72;;;5.10;99.90;;;;;;5105105;28;20025;-71
2022/12/28 06:16:26;;;;;;;6.80;3.10;;;5.10;99.90;;;;;;5075376;28;20020;-71
2022/12/28 06:18:53;;;;;;;9.52;3.53;;;5.10;99.90;;;;;;5089893;28;20032;-70
2022/12/28 06:21:23;;;;;;;7.18;2.78;;;5.10;99.90;;;;;;5073261;28;20027;-70
2022/12/28 06:23:49;;;;;;;9.25;3.60;;;5.10;99.90;;;;;;5109616;28;20028;-70
2022/12/28 06:26:19;;;;;;;6.78;3.05;;;5.10;99.90;;;;;;5091415;27;20498;-71
2022/12/28 06:28:45;;;;;;;6.72;3.05;;;5.10;99.90;;;;;;5092445;28;20032;-71
2022/12/28 06:31:23;;;;;;;5.72;3.60;;;5.20;99.90;;;;;;5107077;28;20070;-71
2022/12/28 06:33:53;;;;;;;6.00;3.30;;;5.20;99.90;;;;;;5106390;28;20057;-71
2022/12/28 06:36:21;;;;;;;7.63;2.83;;;5.20;99.90;;;;;;5104986;28;20031;-71
2022/12/28 06:38:49;;;;;;;6.13;3.00;;;5.20;99.90;;;;;;5103299;28;20092;-71
2022/12/28 06:41:16;;;;;;;5.85;3.10;;;5.20;99.90;;;;;;5088388;28;20028;-71
2022/12/28 06:43:43;;;;;;;5.97;3.33;;;5.30;99.90;;;;;;5088367;28;20122;-71
2022/12/28 06:46:10;;;;;;;5.30;2.72;;;5.30;99.90;;;;;;5105109;28;20440;-71
2022/12/28 06:48:36;;;;;;;7.72;3.58;;;5.30;99.90;;;;;;5085152;28;20028;-71
2022/12/28 06:51:04;;;;;;;7.85;3.33;;;5.30;99.90;;;;;;5104430;28;20036;-71
2022/12/28 06:53:32;;;;;;;5.50;3.50;;;5.30;99.90;;;;;;5072921;28;20063;-74
2022/12/28 06:56:02;;;;;;;8.35;3.40;;;5.30;99.90;;;;;;5087750;28;20558;-71
2022/12/28 06:58:28;;;;;;;8.70;3.90;;;5.30;99.90;;;;;;5088458;28;20399;-71
2022/12/28 07:00:55;;;;;;;6.25;3.92;;;5.30;99.90;;;;;;5086453;28;20020;-71
2022/12/28 07:03:21;;;;;;;7.88;3.22;;;5.30;99.90;;;;;;5070194;28;20031;-71
2022/12/28 07:05:47;;;;;;;5.00;3.10;;;5.40;99.90;;;;;;5086178;28;20118;-71
2022/12/28 07:08:13;;;;;;;5.28;3.40;;;5.40;99.90;;;;;;5105763;28;20051;-71
2022/12/28 07:10:39;;;;;;;10.32;4.25;;;5.40;99.90;;;;;;5087281;27;20054;-73
2022/12/28 07:13:06;;;;;;;6.85;3.70;;;5.40;99.90;;;;;;5090008;28;20024;-73
2022/12/28 07:15:33;;;;;;;5.60;3.63;;;5.50;99.90;;;;;;5108786;28;20103;-73
2022/12/28 07:17:59;;;;;;;6.18;3.63;;;5.50;99.90;;;;;;5068994;28;20034;-71
2022/12/28 07:20:25;;;;;;;9.90;4.13;;;5.50;99.90;;;;;;5100414;28;20024;-71
2022/12/28 07:22:51;;;;;;;5.90;3.90;;;5.50;99.90;;;;;;5100066;28;20035;-71
2022/12/28 07:25:17;;;;;;;6.93;2.75;;;5.50;99.90;;;;;;5088800;28;20138;-73
2022/12/28 07:27:43;;;;;;;6.80;4.38;;;5.80;99.90;;;;;;5084931;28;20554;-72
2022/12/28 07:30:09;;;;;;;6.15;3.58;;;5.80;99.90;;;;;;5107359;28;20652;-73
2022/12/28 07:32:38;;;;;;;11.90;4.00;;;5.80;99.90;;;;;;5105437;28;20136;-70
2022/12/28 07:35:05;;;;;;;10.02;4.55;;;5.70;99.90;;;;;;5104962;28;20054;-71
2022/12/28 07:37:31;;;;;;;7.57;3.90;;;5.70;99.90;;;;;;5068295;28;20024;-71
2022/12/28 07:39:56;;;;;;;6.55;3.85;;;5.70;99.90;;;;;;5105528;28;20559;-71
2022/12/28 07:42:22;;;;;;;5.70;3.90;;;5.70;99.90;;;;;;5104439;28;20055;-71
2022/12/28 07:44:48;;;;;;;7.95;4.10;;;5.70;99.90;;;;;;5087839;28;20032;-71
2022/12/28 07:47:14;;;;;;;8.38;4.15;;;5.70;99.90;;;;;;5083729;28;20047;-71
2022/12/28 07:49:40;;;;;;;6.47;4.05;;;5.80;99.90;;;;;;5070473;28;20053;-71
2022/12/28 07:52:06;;;;;;;6.50;4.07;;;5.80;99.90;;;;;;5104112;28;20027;-71
2022/12/28 07:54:32;;;;;;;7.22;4.18;;;5.80;99.90;;;;;;5117024;28;20024;-71
2022/12/28 07:56:58;;;;;;;8.57;3.58;;;5.80;99.90;;;;;;5100466;28;20023;-71
2022/12/28 07:59:23;;;;;;;8.57;3.67;;;5.80;99.90;;;;;;5099785;28;20027;-71
2022/12/28 08:01:50;;;;;;;6.45;4.20;;;5.90;99.90;;;;;;5109287;28;20403;-71
2022/12/28 08:04:16;;;;;;;7.18;4.30;;;5.90;99.90;;;;;;5090118;28;20027;-71
2022/12/28 08:06:44;;;;;;;8.15;3.72;;;5.90;99.90;;;;;;5087659;28;20020;-71
2022/12/28 08:09:12;;;;;;;7.40;4.10;;;5.90;99.90;;;;;;5107794;28;20225;-72
2022/12/28 08:11:40;;;;;;;9.82;4.10;;;5.90;99.90;;;;;;5090735;28;20403;-72
2022/12/28 08:14:06;;;;;;;8.98;4.10;;;6.00;99.90;;;;;;5109957;28;20035;-72
2022/12/28 08:16:35;;;;;;;9.27;4.53;;;6.00;99.90;;;;;;5089181;28;20028;-72
2022/12/28 08:19:03;;;;;;;6.88;4.22;;;6.00;99.90;;;;;;5089660;28;20390;-71
2022/12/28 08:21:35;;;;;;;6.55;4.03;;;6.10;99.90;;;;;;5090783;28;20039;-72
2022/12/28 08:24:01;;;;;;;7.35;4.38;;;6.10;99.90;;;;;;5089768;28;20034;-74
2022/12/28 08:26:34;;;;;;;8.05;4.68;;;6.10;99.90;;;;;;5102041;28;20023;-73
2022/12/28 08:29:03;;;;;;;6.03;4.25;;;6.20;99.90;;;;;;5090538;28;20042;-74
2022/12/28 08:31:36;;;;;;;6.90;4.97;;;6.20;99.90;;;;;;5084277;28;20432;-74
2022/12/28 08:34:04;;;;;;;7.03;4.40;;;6.10;99.90;;;;;;5107785;28;20043;-74
2022/12/28 08:36:31;;;;;;;10.05;5.22;;;6.20;99.90;;;;;;5105735;28;20099;-73
2022/12/28 08:38:57;;;;;;;9.23;5.50;;;6.20;99.90;;;;;;5105632;28;20057;-73
2022/12/28 08:41:26;;;;;;;10.55;4.97;;;6.30;99.90;;;;;;5089490;28;20624;-72
2022/12/28 08:43:52;;;;;;;8.38;5.57;;;6.30;99.90;;;;;;5091005;28;20758;-73
2022/12/28 08:46:21;;;;;;;7.20;5.00;;;6.30;99.90;;;;;;5108263;28;20039;-73
2022/12/28 08:48:49;;;;;;;8.38;5.18;;;6.30;99.90;;;;;;5104572;28;20083;-73
2022/12/28 08:51:29;;;;;;;7.63;5.40;;;6.40;99.90;;;;;;5107166;28;20112;-73
2022/12/28 08:53:54;;;;;;;10.27;6.07;;;6.40;99.90;;;;;;5105499;28;20133;-71
2022/12/28 08:56:21;;;;;;;11.85;6.35;;;6.50;99.90;;;;;;5091697;28;20141;-71
2022/12/28 08:58:48;;;;;;;10.82;6.22;;;6.40;99.90;;;;;;5097609;28;20016;-73
2022/12/28 09:01:21;;;;;;;8.48;6.32;;;6.50;99.90;;;;;;5090126;28;20055;-73
2022/12/28 09:03:49;;;;;;;16.33;6.60;;;6.50;99.90;;;;;;5089797;28;20031;-73
2022/12/28 09:06:17;;;;;;;10.15;6.72;;;6.80;99.90;;;;;;5099875;27;20027;-73
2022/12/28 09:08:44;;;;;;;9.15;6.72;;;6.70;99.90;;;;;;5108789;27;20042;-72
2022/12/28 09:11:12;;;;;;;9.07;6.85;;;6.70;99.90;;;;;;5107215;28;20039;-72
2022/12/28 09:13:39;;;;;;;11.70;8.20;;;6.70;99.90;;;;;;5072386;28;20145;-74
2022/12/28 09:16:13;;;;;;;11.98;8.35;;;6.70;99.90;;;;;;5068117;27;20408;-74
2022/12/28 09:18:41;;;;;;;15.23;9.35;;;6.70;99.90;;;;;;5087543;28;20046;-72
2022/12/28 09:21:19;;;;;;;12.45;8.75;;;6.70;99.90;;;;;;5103815;28;20039;-70
2022/12/28 09:23:46;;;;;;;14.55;8.57;;;6.70;99.90;;;;;;5098573;28;20452;-73
2022/12/28 09:26:35;;;;;;;13.35;8.13;;;6.80;99.90;;;;;;5105638;28;20039;-73
2022/12/28 09:29:04;;;;;;;13.68;9.00;;;6.80;99.90;;;;;;5083381;27;20024;-72
2022/12/28 09:31:32;;;;;;;14.38;9.68;;;6.80;99.90;;;;;;5084513;28;20043;-74
2022/12/28 09:33:59;;;;;;;13.70;8.82;;;6.80;99.90;;;;;;5100685;28;20027;-74
2022/12/28 09:36:31;;;;;;;15.48;9.77;;;6.90;99.90;;;;;;5106189;27;20034;-73
2022/12/28 09:38:59;;;;;;;16.75;11.02;;;6.90;99.90;;;;;;5094606;27;20043;-73
2022/12/28 09:41:27;;;;;;;15.05;10.75;;;6.90;99.90;;;;;;5099522;27;20483;-73
2022/12/28 09:44:13;;;;;;;13.90;9.98;;;6.90;99.90;;;;;;5103560;27;20093;-73
2022/12/28 09:46:44;;;;;;;13.30;8.82;;;7.00;99.90;;;;;;5104278;28;20046;-73
2022/12/28 09:49:15;;;;;;;13.85;8.73;;;7.00;99.90;;;;;;5085324;27;21591;-73
2022/12/28 09:51:59;;;;;;;16.60;9.18;;;7.00;99.90;;;;;;5082506;28;20027;-72
2022/12/28 09:54:25;;;;;;;14.85;9.52;;;7.00;99.90;;;;;;5101334;27;20027;-72
2022/12/28 09:56:52;;;;;;;11.88;9.18;;;7.00;99.90;;;;;;5083705;27;20387;-72
2022/12/28 09:59:21;;;;;;;16.00;9.38;;;7.10;99.90;;;;;;5067578;28;20058;-72
2022/12/28 10:01:56;;;;;;;12.13;8.93;;;7.10;99.90;;;;;;5058391;27;20147;-72
2022/12/28 10:04:22;;;;;;;12.50;8.63;;;7.10;99.90;;;;;;5114102;28;20115;-71
2022/12/28 10:06:48;;;;;;;15.45;9.10;;;7.20;99.90;;;;;;5113817;27;20042;-70
2022/12/28 10:09:26;;;;;;;12.05;8.90;;;7.10;99.90;;;;;;5108297;27;20039;-71
2022/12/28 10:11:52;;;;;;;10.68;7.78;;;7.20;99.90;;;;;;5103050;28;20110;-73
2022/12/28 10:14:32;;;;;;;11.75;7.80;;;7.20;99.90;;;;;;5087350;27;20111;-71
2022/12/28 10:16:57;;;;;;;12.90;8.13;;;7.20;99.90;;;;;;5086602;28;20020;-72
2022/12/28 10:19:26;;;;;;;11.38;8.25;;;7.20;99.90;;;;;;5088493;28;20042;-72
2022/12/28 10:22:11;;;;;;;12.93;8.35;;;7.30;99.90;;;;;;5100346;28;20131;-72
2022/12/28 10:24:38;;;;;;;11.60;7.75;;;7.30;99.90;;;;;;5098245;28;20042;-72
2022/12/28 10:27:05;;;;;;;12.77;7.95;;;7.40;99.90;;;;;;5086359;28;20135;-73
2022/12/28 10:29:32;;;;;;;11.90;8.10;;;7.30;99.90;;;;;;5080503;28;20016;-70
2022/12/28 10:32:05;;;;;;;10.55;7.38;;;7.40;99.90;;;;;;5079890;28;20486;-72
2022/12/28 10:34:33;;;;;;;10.13;7.45;;;7.40;99.90;;;;;;5079125;28;20027;-69
2022/12/28 10:37:13;;;;;;;11.30;7.90;;;7.40;99.90;;;;;;5105357;28;20031;-71
2022/12/28 10:39:45;;;;;;;11.32;8.48;;;7.50;99.90;;;;;;5105356;28;20027;-69
2022/12/28 10:42:38;;;;;;;11.30;7.97;;;7.50;99.90;;;;;;5087046;28;20088;-70
2022/12/28 10:45:14;;;;;;;10.68;7.85;;;7.50;99.90;;;;;;5104860;28;20051;-69
2022/12/28 10:47:43;;;;;;;12.70;7.95;;;7.50;99.90;;;;;;5080838;28;20054;-70
2022/12/28 10:50:43;;;;;;;11.45;9.00;;;7.50;99.90;;;;;;5102355;28;20035;-70
2022/12/28 10:53:22;;;;;;;12.52;8.80;;;7.50;99.90;;;;;;5085053;28;20031;-72
2022/12/28 10:55:48;;;;;;;11.32;8.13;;;7.50;99.90;;;;;;5080871;28;20243;-71
2022/12/28 10:58:18;;;;;;;11.90;8.27;;;7.60;99.90;;;;;;5061737;28;20035;-72
2022/12/28 11:00:53;;;;;;;11.63;7.63;;;7.60;99.90;;;;;;5063957;28;20028;-72
2022/12/28 11:03:24;;;;;;;10.90;7.18;;;7.60;99.90;;;;;;5100753;28;20031;-74
2022/12/28 11:06:10;;;;;;;11.35;7.03;;;7.70;99.90;;;;;;5085702;28;20075;-73
2022/12/28 11:08:38;;;;;;;10.10;7.53;;;7.70;99.90;;;;;;5065481;28;20076;-72
2022/12/28 11:11:05;;;;;;;9.55;7.07;;;7.70;99.90;;;;;;5086756;28;20031;-72
2022/12/28 11:13:31;;;;;;;9.05;6.72;;;7.70;99.90;;;;;;5090617;28;20032;-71
2022/12/28 11:15:58;;;;;;;9.23;6.97;;;7.70;99.90;;;;;;5100488;28;20061;-73
2022/12/28 11:18:24;;;;;;;9.07;7.25;;;7.80;99.90;;;;;;5085369;28;20066;-72
2022/12/28 11:20:53;;;;;;;10.13;7.30;;;7.80;99.90;;;;;;5087547;28;20036;-74
2022/12/28 11:23:30;;;;;;;8.48;6.15;;;7.80;99.90;;;;;;5085336;28;20031;-75
2022/12/28 11:25:56;;;;;;;9.00;6.05;;;7.80;99.90;;;;;;5105584;28;21000;-75
2022/12/28 11:28:22;;;;;;;9.10;6.80;;;7.80;99.90;;;;;;5085649;28;20051;-74
2022/12/28 11:30:50;;;;;;;8.15;6.13;;;7.80;99.90;;;;;;5085251;28;20059;-74
2022/12/28 11:33:38;;;;;;;8.63;6.13;;;7.90;99.90;;;;;;5100556;28;20506;-75
2022/12/28 11:36:05;;;;;;;9.88;6.13;;;7.90;99.90;;;;;;5085315;28;20931;-74
2022/12/28 11:38:44;;;;;;;10.18;5.95;;;7.90;99.90;;;;;;5101154;28;20023;-73
2022/12/28 11:41:27;;;;;;;8.35;5.43;;;7.90;99.90;;;;;;5101895;28;20466;-75
2022/12/28 11:43:53;;;;;;;6.25;5.30;;;7.90;99.90;;;;;;5086964;28;20046;-73
2022/12/28 11:46:19;;;;;;;6.95;5.43;;;7.90;99.90;;;;;;5086302;28;20027;-74
2022/12/28 11:48:47;;;;;;;6.32;4.72;;;7.90;99.90;;;;;;5104997;28;20117;-75
2022/12/28 11:51:35;;;;;;;5.40;4.65;;;7.90;99.90;;;;;;5100767;28;20035;-74
2022/12/28 11:54:38;;;;;;;5.88;4.60;;;7.90;99.90;;;;;;5088214;28;20041;-77
2022/12/28 11:57:07;;;;;;;5.30;4.38;;;7.90;99.90;;;;;;5097188;28;20890;-75
2022/12/28 11:59:34;;;;;;;6.25;4.40;;;7.90;99.90;;;;;;5098969;28;20062;-74
2022/12/28 12:02:08;;;;;;;5.80;4.60;;;7.90;99.90;;;;;;5074007;28;20032;-74
2022/12/28 12:04:36;;;;;;;6.45;4.55;;;7.90;99.90;;;;;;5080396;28;20066;-74
2022/12/28 12:07:02;;;;;;;5.03;3.92;;;7.90;99.90;;;;;;5084075;28;20051;-73
2022/12/28 12:09:42;;;;;;;5.72;4.22;;;7.90;99.90;;;;;;5083648;28;20073;-77
2022/12/28 12:12:14;;;;;;;5.72;4.20;;;7.90;99.90;;;;;;5093297;28;20032;-74
2022/12/28 12:14:53;;;;;;;5.28;3.40;;;7.90;99.90;;;;;;5088182;28;20035;-75
2022/12/28 12:17:26;;;;;;;4.32;3.83;;;8.00;99.90;;;;;;5081679;28;20049;-75
2022/12/28 12:19:57;;;;;;;4.70;3.90;;;8.00;99.90;;;;;;5089871;28;20124;-75
2022/12/28 12:22:34;;;;;;;3.75;3.15;;;8.00;99.90;;;;;;5106229;28;20375;-74
2022/12/28 12:25:27;;;;;;;4.05;3.25;;;8.00;99.90;;;;;;5098422;28;20063;-75
2022/12/28 12:28:05;;;;;;;4.20;3.15;;;8.10;99.90;;;;;;5087520;28;20376;-75
2022/12/28 12:30:31;;;;;;;3.83;3.17;;;8.00;99.90;;;;;;5104220;28;20119;-76
2022/12/28 12:33:04;;;;;;;4.32;3.70;;;8.10;99.90;;;;;;5106187;28;20028;-74
2022/12/28 12:35:48;;;;;;;4.57;3.90;;;8.00;99.90;;;;;;5062325;28;20028;-74
2022/12/28 12:38:41;;;;;;;5.10;3.80;;;8.10;99.90;;;;;;5102514;28;20026;-74
2022/12/28 12:41:25;;;;;;;6.28;4.47;;;8.10;99.90;;;;;;5068204;28;20038;-74
2022/12/28 12:44:10;;;;;;;5.20;4.20;;;8.10;99.90;;;;;;5098501;28;20078;-75
2022/12/28 12:46:48;;;;;;;5.25;3.83;;;8.10;99.90;;;;;;5099914;28;20134;-74
2022/12/28 12:49:16;;;;;;;5.72;4.18;;;8.20;99.90;;;;;;5058933;28;20466;-74
2022/12/28 12:52:13;;;;;;;5.90;4.40;;;8.10;99.90;;;;;;5084592;28;20110;-74
2022/12/28 12:54:57;;;;;;;5.88;4.45;;;8.10;99.90;;;;;;5089143;28;20023;-73
2022/12/28 12:57:47;;;;;;;7.05;4.90;;;8.10;99.90;;;;;;5073005;28;20080;-74
2022/12/28 13:00:23;;;;;;;6.18;4.78;;;8.10;99.90;;;;;;5077257;28;20095;-74
2022/12/28 13:02:54;;;;;;;6.82;5.03;;;8.10;99.90;;;;;;5098284;28;20066;-75
2022/12/28 13:05:27;;;;;;;6.47;4.65;;;8.10;99.90;;;;;;5063533;28;20101;-75
2022/12/28 13:07:55;;;;;;;7.55;4.60;;;8.20;99.90;;;;;;5099794;28;20054;-75
2022/12/28 13:10:33;;;;;;;7.03;4.65;;;8.10;99.90;;;;;;5077794;28;20495;-74
2022/12/28 13:13:03;;;;;;;6.55;4.88;;;8.20;99.90;;;;;;5082736;28;20092;-76
2022/12/28 13:15:30;;;;;;;5.15;4.10;;;8.10;99.90;;;;;;5072849;28;20027;-76
2022/12/28 13:18:15;;;;;;;7.93;5.10;;;8.20;99.90;;;;;;5111430;27;20026;-76
2022/12/28 13:20:50;;;;;;;6.20;5.05;;;8.10;99.90;;;;;;5110074;28;20099;-75
2022/12/28 13:23:16;;;;;;;7.95;5.15;;;8.20;99.90;;;;;;5092379;28;20035;-76
2022/12/28 13:25:46;;;;;;;8.15;5.43;;;8.20;99.90;;;;;;5112030;27;20035;-75
2022/12/28 13:28:26;;;;;;;9.02;5.65;;;8.20;99.90;;;;;;5089972;28;20034;-75
2022/12/28 13:31:28;;;;;;;9.55;6.35;;;8.20;99.90;;;;;;5100553;27;20062;-74
2022/12/28 13:34:04;;;;;;;;;;;8.20;99.90;;;;;;4984582;28;20513;-74